AirNav   Everest Fuels
 
 397 users online  

7D3 Baldwin Municipal Airport
Baldwin, Michigan, USA

GOING TO BALDWIN?


FAA INFORMATION EFFECTIVE 07 OCTOBER 2021

Location

FAA Identifier: 7D3
Lat/Long: 43-52-31.9283N 085-50-31.4970W
43-52.532138N 085-50.524950W
43.8755356,-85.8420825
(estimated)
Elevation: 828 ft. / 252 m (estimated)
Variation: 06W (2020)
From city: 2 miles S of BALDWIN, MI
Time zone: UTC -4 (UTC -5 during Standard Time)
Zip code: 49304

Airport Operations

Airport use: Open to the public
Activation date: 02/1940
Control tower: no
ARTCC: MINNEAPOLIS CENTER
FSS: LANSING FLIGHT SERVICE STATION
NOTAMs facility: LAN (NOTAM-D service available)
Attendance: UNATNDD
Wind indicator: yes
Segmented circle: yes

Airport Communications

CTAF: 122.9
WX AWOS-3P at RQB (17 nm SE): 125.875 (231-796-0884)
  • APCH/DEP SVC PRVDD BY MINNEAPOLIS ARTCC ON FREQS 120.85/322.35 (WHITE CLOUD RCAG).

Nearby radio navigation aids

VOR radial/distance  VOR name  Freq  Var
HICr344/18.8WHITE CLOUD VOR/DME117.6001W
MBLr148/29.6MANISTEE VOR/DME111.4005W

Airport Services

Parking: tiedowns
Airframe service: NONE
Powerplant service: NONE
Bottled oxygen: NONE
Bulk oxygen: NONE

Runway Information

Runway 9/27

Dimensions: 3800 x 75 ft. / 1158 x 23 m
Surface: asphalt, in fair condition
Weight bearing capacity: 
Single wheel: 10.0
RUNWAY 9  RUNWAY 27
Latitude: 43-52.525000N43-52.482250N
Longitude: 085-50.760617W085-49.898067W
Elevation: 818.0 ft.828.0 ft.
Traffic pattern: leftleft
Runway heading: 100 magnetic, 094 true280 magnetic, 274 true
Markings: basic, in good conditionbasic, in good condition
Runway end identifier lights: nono
Touchdown point: yes, no lightsyes, no lights
Obstructions: 93 ft. trees, 1773 ft. from runway, 136 ft. left of centerline, 16:1 slope to clear
APCH RATIO 20:1 BASED ON STRAIGHT OUT.
80 ft. trees, 1480 ft. from runway, 70 ft. left of centerline, 16:1 slope to clear
APCH RATIO 17:1 BASED ON STRAIGHT OUT OVR 77 FT TREE, 1563 FT DIST.

Runway 5/23

Dimensions: 2800 x 100 ft. / 853 x 30 m
Surface: turf, in fair condition
Runway edge markings: RWY & DTHR MKD WITH 3 FT YELLOW CONES.
RUNWAY 5  RUNWAY 23
Latitude: 43-52.415000N43-52.726667N
Longitude: 085-51.025000W085-50.555833W
Elevation: 816.0 ft.822.0 ft.
Traffic pattern: leftleft
Runway heading: 053 magnetic, 047 true233 magnetic, 227 true
Displaced threshold: 800 ft.800 ft.
Runway end identifier lights: nono
Touchdown point: yes, no lightsyes, no lights
Obstructions: 63 ft. trees, 400 ft. from runway, 140 ft. left of centerline, 6:1 slope to clear
APCH RATIO 18:1 TO DTHR OVR 74 FT TREE, 1353 DIST, 40 FT L.
61 ft. trees, 243 ft. from runway, 133 ft. left of centerline, 3:1 slope to clear
APCH RATIO 14:1 TO DTHR OVR 73 FT TREE, 1089 FT DIST, 118 FT L; 16:1 BASED ON STRAIGHT OUT OVR 80 FT TREES, 1309 FT DIST.

Airport Ownership and Management from official FAA records

Ownership: Publicly-owned
Owner: VILLAGE OF BALDWIN
PO BOX 339
BALDWIN, MI 49304-0339
Phone 231-745-3587
Manager: MAC L MCCLELLAN
2535 W HUMMINGBIRD LN
BALDWIN, MI 49304-8004
Phone 231-745-7815
CELL 231-250-2551.

Airport Operational Statistics

Aircraft based on the field: 2
Single engine airplanes: 2
    
Aircraft operations: avg 29/month *
86% transient general aviation
14% local general aviation
* for 12-month period ending 31 December 2019

Additional Remarks

DEER ON & INVOF ARPT.
UAS OPS ADJ TO RWY 09/27.
GATE 5-3-2-1.
FOR CD CTC MINNEAPOLIS ARTCC AT 651-463-5588.
ARPT CLSD WHEN SNOW COVD - NO SNOW REMOVAL.

Instrument Procedures

NOTE: All procedures below are presented as PDF files. If you need a reader for these files, you should download the free Adobe Reader.

NOT FOR NAVIGATION. Please procure official charts for flight.
FAA instrument procedures published for use from 07 October 2021 at 0901Z to 04 November 2021 at 0900z.

 
IAPs - Instrument Approach Procedures
RNAV (GPS)-A   download (172KB)
NOTE: Special Take-Off Minimums/Departure Procedures apply   download (122KB)

Other nearby airports with instrument procedures:

KRQB - Roben-Hood Airport (17 nm SE)
KLDM - Mason County Airport (25 nm W)
C04 - Oceana County Airport (25 nm SW)
KFFX - Fremont Municipal Airport (27 nm S)
KMBL - Manistee County-Blacker Airport (30 nm NW)
 
Loc | Ops | Rwys | IFR | FBO | Links
Com | Nav | Svcs | Stats | Notes
Area around 7D3 (Baldwin Municipal Airport)
 
Road maps at: MapQuest Bing Google
 
Aerial photo
WARNING: Photo may not be current or correct
Aerial photo of 7D3 (Baldwin Municipal Airport)
Do you have a better or more recent aerial photo of Baldwin Municipal Airport that you would like to share? If so, please send us your photo.

 
Sectional chart

 
Airport distance calculator
Flying to Baldwin Municipal Airport? Find the distance to fly.

From to 7D3

Sunrise and sunset
Times for 25-Oct-2021
 Local
(UTC-4)
 Zulu
(UTC)
Morning civil twilight07:4211:42
Sunrise08:1112:11
Sunset18:4322:43
Evening civil twilight19:1323:13

Current date and time
Zulu (UTC)  25-Oct-2021 06:29:32
Local (UTC-4)  25-Oct-2021 02:29:32
 
METAR
KRQB 
18nm SE 
250615Z AUTO 07006KT 10SM BKN031 OVC100 07/02 A2993 RMK AO2 T00650015
KLDM 
25nm W 
250615Z AUTO 06008KT 10SM CLR 07/02 A2993 RMK AO2 T00710020
KFFX 
27nm S 
250615Z AUTO 09012G18KT 10SM -RA SCT050 BKN070 OVC085 07/05 A2989 RMK AO2 T00660049
KMBL 
29nm NW 
250556Z AUTO 06008KT 10SM CLR 06/03 A2997 RMK AO2 SLP151 T00610033 10078 20061 55005
KCAD 
30nm NE 
250615Z AUTO 05009KT 10SM CLR 05/02 A2995 RMK AO2 T00510020
TAF
KMBL 
29nm NW 
250520Z 2506/2606 07011G20KT P6SM SCT050 OVC100 FM250900 05012G21KT P6SM VCSH SCT025 OVC040 FM251800 04014G23KT P6SM OVC035
NOTAMs
Click for the latest NOTAMs
NOTAMs are issued by the DoD/FAA and will open in a separate window not controlled by AirNav.

 

 
 

Would you like to see your business listed on this page?

 If your business provides an interesting product or service to pilots, flight crews, aircraft, or users of the Baldwin Municipal Airport, you should consider listing it here.  To start the listing process, click on the button below
 
Add a business
 

Other Pages about Baldwin Municipal Airport

Page from the Michigan Airport Directory (PDF)
 
Update a link
 
Copyright © AirNav, LLC. All rights reserved. Privacy Policy  Contact